sensor_id;sensor_type;location;lat;lon;timestamp;P1;P2;P0
62547;PMS7003;48602;45.192;5.722;2022-09-20T00:00:39;11.00;8.00;6.00
62547;PMS7003;48602;45.192;5.722;2022-09-20T00:03:05;4.25;4.25;3.25
62547;PMS7003;48602;45.192;5.722;2022-09-20T00:05:34;5.75;5.75;4.75
62547;PMS7003;48602;45.192;5.722;2022-09-20T00:08:02;8.75;6.25;5.75
62547;PMS7003;48602;45.192;5.722;2022-09-20T00:10:29;7.50;5.25;3.50
62547;PMS7003;48602;45.192;5.722;2022-09-20T00:12:58;7.50;7.00;5.00
62547;PMS7003;48602;45.192;5.722;2022-09-20T00:15:23;6.00;6.00;4.75
62547;PMS7003;48602;45.192;5.722;2022-09-20T00:17:49;8.50;7.00;4.75
62547;PMS7003;48602;45.192;5.722;2022-09-20T00:20:14;6.25;5.50;4.75
62547;PMS7003;48602;45.192;5.722;2022-09-20T00:22:39;6.25;5.50;4.00
62547;PMS7003;48602;45.192;5.722;2022-09-20T00:25:05;6.00;5.75;5.00
62547;PMS7003;48602;45.192;5.722;2022-09-20T00:27:31;6.25;6.25;4.50
62547;PMS7003;48602;45.192;5.722;2022-09-20T00:29:57;4.75;4.25;3.00
62547;PMS7003;48602;45.192;5.722;2022-09-20T00:32:22;7.00;6.25;5.00
62547;PMS7003;48602;45.192;5.722;2022-09-20T00:34:48;6.25;4.00;3.00
62547;PMS7003;48602;45.192;5.722;2022-09-20T00:37:32;6.25;4.00;3.25
62547;PMS7003;48602;45.192;5.722;2022-09-20T00:39:58;4.25;2.50;2.00
62547;PMS7003;48602;45.192;5.722;2022-09-20T00:42:27;5.25;4.00;4.00
62547;PMS7003;48602;45.192;5.722;2022-09-20T00:52:32;4.75;4.00;3.50
62547;PMS7003;48602;45.192;5.722;2022-09-20T00:54:59;4.00;4.00;3.00
62547;PMS7003;48602;45.192;5.722;2022-09-20T00:57:26;3.00;3.00;3.00
62547;PMS7003;48602;45.192;5.722;2022-09-20T00:59:59;2.00;2.00;1.75
62547;PMS7003;48602;45.192;5.722;2022-09-20T01:02:26;4.40;3.80;3.20
62547;PMS7003;48602;45.192;5.722;2022-09-20T01:04:55;3.50;3.00;2.50
62547;PMS7003;48602;45.192;5.722;2022-09-20T01:07:22;5.25;3.00;3.00
62547;PMS7003;48602;45.192;5.722;2022-09-20T01:09:48;3.50;3.50;3.00
62547;PMS7003;48602;45.192;5.722;2022-09-20T01:12:21;5.75;4.00;3.00
62547;PMS7003;48602;45.192;5.722;2022-09-20T01:14:51;3.00;2.00;1.25
62547;PMS7003;48602;45.192;5.722;2022-09-20T01:17:18;3.50;3.50;1.75
62547;PMS7003;48602;45.192;5.722;2022-09-20T01:19:59;5.00;3.00;2.50
62547;PMS7003;48602;45.192;5.722;2022-09-20T01:25:20;3.75;3.00;2.75
62547;PMS7003;48602;45.192;5.722;2022-09-20T01:27:51;3.75;3.00;2.75
62547;PMS7003;48602;45.192;5.722;2022-09-20T01:30:19;4.00;3.25;3.00
62547;PMS7003;48602;45.192;5.722;2022-09-20T01:35:11;7.00;3.50;3.00
62547;PMS7003;48602;45.192;5.722;2022-09-20T01:43:34;3.25;1.25;1.25
62547;PMS7003;48602;45.192;5.722;2022-09-20T01:46:20;3.50;3.50;3.00
62547;PMS7003;48602;45.192;5.722;2022-09-20T01:48:49;4.00;4.00;3.50
62547;PMS7003;48602;45.192;5.722;2022-09-20T01:52:06;3.50;2.25;2.00
62547;PMS7003;48602;45.192;5.722;2022-09-20T02:21:30;3.25;3.00;2.50
62547;PMS7003;48602;45.192;5.722;2022-09-20T02:24:14;4.00;2.00;2.00
62547;PMS7003;48602;45.192;5.722;2022-09-20T02:35:39;2.75;2.00;2.00
62547;PMS7003;48602;45.192;5.722;2022-09-20T02:39:14;2.50;2.50;2.00
62547;PMS7003;48602;45.192;5.722;2022-09-20T02:54:53;3.00;3.00;3.00
62547;PMS7003;48602;45.192;5.722;2022-09-20T03:00:26;2.40;2.20;2.00
62547;PMS7003;48602;45.192;5.722;2022-09-20T03:11:43;2.50;2.50;2.00
62547;PMS7003;48602;45.192;5.722;2022-09-20T03:14:18;4.25;3.25;2.25
62547;PMS7003;48602;45.192;5.722;2022-09-20T03:19:31;4.00;2.00;2.00
62547;PMS7003;48602;45.192;5.722;2022-09-20T03:24:41;3.00;3.00;3.00
62547;PMS7003;48602;45.192;5.722;2022-09-20T03:27:32;2.75;2.75;2.75
62547;PMS7003;48602;45.192;5.722;2022-09-20T03:33:22;3.00;2.00;2.00
62547;PMS7003;48602;45.192;5.722;2022-09-20T03:47:51;4.00;4.00;3.75
62547;PMS7003;48602;45.192;5.722;2022-09-20T03:52:56;5.50;4.00;3.75
62547;PMS7003;48602;45.192;5.722;2022-09-20T04:01:16;6.75;5.00;4.50
62547;PMS7003;48602;45.192;5.722;2022-09-20T04:04:54;4.50;4.50;4.25
62547;PMS7003;48602;45.192;5.722;2022-09-20T04:06:53;3.00;3.00;3.00
62547;PMS7003;48602;45.192;5.722;2022-09-20T04:09:44;5.50;4.00;3.50
62547;PMS7003;48602;45.192;5.722;2022-09-20T04:20:59;4.75;4.75;4.00
62547;PMS7003;48602;45.192;5.722;2022-09-20T04:26:30;5.00;4.00;3.00
62547;PMS7003;48602;45.192;5.722;2022-09-20T04:31:58;4.50;4.50;4.00
62547;PMS7003;48602;45.192;5.722;2022-09-20T04:34:37;5.00;5.00;4.50
62547;PMS7003;48602;45.192;5.722;2022-09-20T04:37:34;7.00;7.00;7.00
62547;PMS7003;48602;45.192;5.722;2022-09-20T04:48:33;6.25;5.25;4.25
62547;PMS7003;48602;45.192;5.722;2022-09-20T04:56:56;5.50;5.50;5.00
62547;PMS7003;48602;45.192;5.722;2022-09-20T05:21:36;8.00;7.75;6.50
62547;PMS7003;48602;45.192;5.722;2022-09-20T05:29:28;7.25;7.25;5.25
62547;PMS7003;48602;45.192;5.722;2022-09-20T05:40:39;14.00;9.25;8.00
62547;PMS7003;48602;45.192;5.722;2022-09-20T05:43:29;10.25;9.00;8.00
62547;PMS7003;48602;45.192;5.722;2022-09-20T05:49:11;6.75;6.00;5.75
62547;PMS7003;48602;45.192;5.722;2022-09-20T05:52:01;8.00;8.00;7.25
62547;PMS7003;48602;45.192;5.722;2022-09-20T06:00:20;10.25;7.00;6.25
62547;PMS7003;48602;45.192;5.722;2022-09-20T06:08:17;10.25;8.50;6.75
62547;PMS7003;48602;45.192;5.722;2022-09-20T06:11:20;6.75;6.75;6.00
62547;PMS7003;48602;45.192;5.722;2022-09-20T06:19:39;6.75;5.25;4.50
62547;PMS7003;48602;45.192;5.722;2022-09-20T06:22:18;8.00;7.25;6.00
62547;PMS7003;48602;45.192;5.722;2022-09-20T06:24:59;6.25;6.25;5.50
62547;PMS7003;48602;45.192;5.722;2022-09-20T06:27:40;6.00;6.00;4.50
62547;PMS7003;48602;45.192;5.722;2022-09-20T06:30:20;7.50;7.00;5.50
62547;PMS7003;48602;45.192;5.722;2022-09-20T06:41:35;4.25;4.25;4.25
62547;PMS7003;48602;45.192;5.722;2022-09-20T06:44:01;9.00;8.00;5.00
62547;PMS7003;48602;45.192;5.722;2022-09-20T06:46:29;9.00;9.00;7.00
62547;PMS7003;48602;45.192;5.722;2022-09-20T06:48:56;7.25;5.75;5.00
62547;PMS7003;48602;45.192;5.722;2022-09-20T06:51:23;8.50;7.75;6.75
62547;PMS7003;48602;45.192;5.722;2022-09-20T06:53:50;8.75;6.75;6.00
62547;PMS7003;48602;45.192;5.722;2022-09-20T06:56:19;7.00;7.00;6.75
62547;PMS7003;48602;45.192;5.722;2022-09-20T06:58:47;9.00;7.00;6.25
62547;PMS7003;48602;45.192;5.722;2022-09-20T07:01:13;6.50;6.00;6.00
62547;PMS7003;48602;45.192;5.722;2022-09-20T07:03:40;8.00;7.00;6.25
62547;PMS7003;48602;45.192;5.722;2022-09-20T07:06:06;10.25;8.50;8.00
62547;PMS7003;48602;45.192;5.722;2022-09-20T07:08:32;11.75;9.25;8.25
62547;PMS7003;48602;45.192;5.722;2022-09-20T07:11:09;11.75;9.00;7.50
62547;PMS7003;48602;45.192;5.722;2022-09-20T07:13:38;7.50;6.00;6.00
62547;PMS7003;48602;45.192;5.722;2022-09-20T07:16:05;6.75;6.75;5.75
62547;PMS7003;48602;45.192;5.722;2022-09-20T07:18:31;6.50;6.00;6.00
62547;PMS7003;48602;45.192;5.722;2022-09-20T07:20:57;7.00;7.00;5.25
62547;PMS7003;48602;45.192;5.722;2022-09-20T07:23:24;9.00;9.00;7.00
62547;PMS7003;48602;45.192;5.722;2022-09-20T07:25:54;7.00;6.25;5.00
62547;PMS7003;48602;45.192;5.722;2022-09-20T07:28:23;9.25;8.50;6.50
62547;PMS7003;48602;45.192;5.722;2022-09-20T07:30:48;7.25;7.00;6.00
62547;PMS7003;48602;45.192;5.722;2022-09-20T07:33:14;6.25;6.25;6.00
62547;PMS7003;48602;45.192;5.722;2022-09-20T07:35:46;7.00;7.00;6.50
62547;PMS7003;48602;45.192;5.722;2022-09-20T07:38:12;6.50;6.00;5.00
62547;PMS7003;48602;45.192;5.722;2022-09-20T07:40:39;6.00;5.75;5.00
62547;PMS7003;48602;45.192;5.722;2022-09-20T07:43:04;11.75;10.00;8.75
62547;PMS7003;48602;45.192;5.722;2022-09-20T07:45:30;6.00;6.00;5.75
62547;PMS7003;48602;45.192;5.722;2022-09-20T07:47:56;8.00;7.00;6.75
62547;PMS7003;48602;45.192;5.722;2022-09-20T07:50:23;6.25;6.00;5.00
62547;PMS7003;48602;45.192;5.722;2022-09-20T07:52:49;10.00;10.00;8.00
62547;PMS7003;48602;45.192;5.722;2022-09-20T07:55:15;13.50;12.75;10.75
62547;PMS7003;48602;45.192;5.722;2022-09-20T07:57:40;6.50;5.75;5.00
62547;PMS7003;48602;45.192;5.722;2022-09-20T08:00:07;5.00;5.00;4.75
62547;PMS7003;48602;45.192;5.722;2022-09-20T08:02:34;8.25;7.50;6.00
62547;PMS7003;48602;45.192;5.722;2022-09-20T08:04:59;10.00;9.50;8.00
62547;PMS7003;48602;45.192;5.722;2022-09-20T08:07:25;10.00;8.50;8.00
62547;PMS7003;48602;45.192;5.722;2022-09-20T08:09:50;6.75;5.75;5.00
62547;PMS7003;48602;45.192;5.722;2022-09-20T08:12:16;6.75;6.75;5.00
62547;PMS7003;48602;45.192;5.722;2022-09-20T08:14:42;5.75;5.50;5.00
62547;PMS7003;48602;45.192;5.722;2022-09-20T08:17:08;7.25;5.75;4.25
62547;PMS7003;48602;45.192;5.722;2022-09-20T08:19:35;8.25;6.75;5.75
62547;PMS7003;48602;45.192;5.722;2022-09-20T08:22:04;6.75;6.00;5.25
62547;PMS7003;48602;45.192;5.722;2022-09-20T08:24:30;6.75;5.00;4.00
62547;PMS7003;48602;45.192;5.722;2022-09-20T08:26:56;5.75;5.25;5.00
62547;PMS7003;48602;45.192;5.722;2022-09-20T08:29:21;6.50;6.50;5.25
62547;PMS7003;48602;45.192;5.722;2022-09-20T08:31:47;7.50;6.00;5.00
62547;PMS7003;48602;45.192;5.722;2022-09-20T08:34:12;7.00;6.00;5.50
62547;PMS7003;48602;45.192;5.722;2022-09-20T08:36:40;8.25;5.00;4.75
62547;PMS7003;48602;45.192;5.722;2022-09-20T08:39:09;4.60;4.60;4.40
62547;PMS7003;48602;45.192;5.722;2022-09-20T08:41:42;6.25;6.25;5.25
62547;PMS7003;48602;45.192;5.722;2022-09-20T08:44:16;5.75;4.75;4.00
62547;PMS7003;48602;45.192;5.722;2022-09-20T08:46:49;5.00;5.00;4.75
62547;PMS7003;48602;45.192;5.722;2022-09-20T08:49:24;5.00;5.00;4.00
62547;PMS7003;48602;45.192;5.722;2022-09-20T08:51:51;4.25;3.00;2.75
62547;PMS7003;48602;45.192;5.722;2022-09-20T08:54:18;5.00;5.00;4.75
62547;PMS7003;48602;45.192;5.722;2022-09-20T08:56:47;5.00;4.75;4.25
62547;PMS7003;48602;45.192;5.722;2022-09-20T08:59:15;6.40;5.60;4.80
62547;PMS7003;48602;45.192;5.722;2022-09-20T09:01:44;7.50;5.25;5.00
62547;PMS7003;48602;45.192;5.722;2022-09-20T09:06:45;6.00;6.00;5.25
62547;PMS7003;48602;45.192;5.722;2022-09-20T09:09:15;6.80;6.80;5.60
62547;PMS7003;48602;45.192;5.722;2022-09-20T09:11:43;5.75;5.75;5.00
62547;PMS7003;48602;45.192;5.722;2022-09-20T09:17:13;10.25;7.00;6.75
62547;PMS7003;48602;45.192;5.722;2022-09-20T09:19:58;4.80;4.40;4.00
62547;PMS7003;48602;45.192;5.722;2022-09-20T09:22:41;7.50;6.25;5.00
62547;PMS7003;48602;45.192;5.722;2022-09-20T09:30:29;7.20;6.00;5.40
62547;PMS7003;48602;45.192;5.722;2022-09-20T09:33:14;7.75;7.75;6.00
62547;PMS7003;48602;45.192;5.722;2022-09-20T09:36:08;7.00;5.00;5.00
62547;PMS7003;48602;45.192;5.722;2022-09-20T09:38:40;7.00;7.00;6.00
62547;PMS7003;48602;45.192;5.722;2022-09-20T09:46:28;6.75;5.50;5.25
62547;PMS7003;48602;45.192;5.722;2022-09-20T09:51:33;8.20;4.60;3.60
62547;PMS7003;48602;45.192;5.722;2022-09-20T09:54:00;5.25;4.25;4.25
62547;PMS7003;48602;45.192;5.722;2022-09-20T09:56:39;4.75;3.75;3.50
62547;PMS7003;48602;45.192;5.722;2022-09-20T09:59:32;4.50;2.25;2.00
62547;PMS7003;48602;45.192;5.722;2022-09-20T10:05:15;4.75;3.75;3.25
62547;PMS7003;48602;45.192;5.722;2022-09-20T10:07:57;3.00;3.00;2.75
62547;PMS7003;48602;45.192;5.722;2022-09-20T10:26:22;3.75;3.00;2.75
62547;PMS7003;48602;45.192;5.722;2022-09-20T10:34:52;4.60;3.80;3.60
62547;PMS7003;48602;45.192;5.722;2022-09-20T10:42:39;4.00;3.60;2.80
62547;PMS7003;48602;45.192;5.722;2022-09-20T10:48:04;3.75;2.75;2.75
62547;PMS7003;48602;45.192;5.722;2022-09-20T10:50:50;3.25;3.00;2.75
62547;PMS7003;48602;45.192;5.722;2022-09-20T10:53:28;5.00;3.00;3.00
62547;PMS7003;48602;45.192;5.722;2022-09-20T11:08:12;2.80;2.80;2.80
62547;PMS7003;48602;45.192;5.722;2022-09-20T11:13:10;4.00;4.00;3.00
62547;PMS7003;48602;45.192;5.722;2022-09-20T11:15:52;3.00;2.60;2.60
62547;PMS7003;48602;45.192;5.722;2022-09-20T11:21:17;1.00;1.00;1.00
62547;PMS7003;48602;45.192;5.722;2022-09-20T11:23:53;3.75;3.50;3.00
62547;PMS7003;48602;45.192;5.722;2022-09-20T11:26:24;3.20;2.00;2.00
62547;PMS7003;48602;45.192;5.722;2022-09-20T11:28:57;3.00;3.00;2.80
62547;PMS7003;48602;45.192;5.722;2022-09-20T11:31:38;6.50;5.00;4.50
62547;PMS7003;48602;45.192;5.722;2022-09-20T11:36:48;4.60;3.60;2.80
62547;PMS7003;48602;45.192;5.722;2022-09-20T11:42:12;3.80;3.80;3.00
62547;PMS7003;48602;45.192;5.722;2022-09-20T11:44:44;4.25;4.25;3.50
62547;PMS7003;48602;45.192;5.722;2022-09-20T11:47:19;3.00;3.00;3.00
62547;PMS7003;48602;45.192;5.722;2022-09-20T11:50:25;3.80;3.00;3.00
62547;PMS7003;48602;45.192;5.722;2022-09-20T11:55:56;2.75;2.75;2.00
62547;PMS7003;48602;45.192;5.722;2022-09-20T11:58:30;3.00;3.00;3.00
62547;PMS7003;48602;45.192;5.722;2022-09-20T12:01:12;3.00;3.00;2.80
62547;PMS7003;48602;45.192;5.722;2022-09-20T12:03:39;4.00;4.00;3.80
62547;PMS7003;48602;45.192;5.722;2022-09-20T12:06:16;3.25;2.00;1.75
62547;PMS7003;48602;45.192;5.722;2022-09-20T12:08:48;4.00;3.60;3.60
62547;PMS7003;48602;45.192;5.722;2022-09-20T12:11:15;4.60;3.20;2.80
62547;PMS7003;48602;45.192;5.722;2022-09-20T12:13:51;4.40;4.40;3.60
62547;PMS7003;48602;45.192;5.722;2022-09-20T12:19:07;3.00;3.00;3.00
62547;PMS7003;48602;45.192;5.722;2022-09-20T12:24:26;4.00;3.00;3.00
62547;PMS7003;48602;45.192;5.722;2022-09-20T12:27:00;4.00;4.00;3.00
62547;PMS7003;48602;45.192;5.722;2022-09-20T12:34:58;2.00;2.00;2.00
62547;PMS7003;48602;45.192;5.722;2022-09-20T12:37:24;3.00;2.00;2.00
62547;PMS7003;48602;45.192;5.722;2022-09-20T12:39:51;4.00;3.00;2.80
62547;PMS7003;48602;45.192;5.722;2022-09-20T12:42:27;4.00;3.60;2.80
62547;PMS7003;48602;45.192;5.722;2022-09-20T12:45:15;3.80;3.00;2.80
62547;PMS7003;48602;45.192;5.722;2022-09-20T12:47:50;1.00;1.00;1.00
62547;PMS7003;48602;45.192;5.722;2022-09-20T12:50:19;4.00;3.40;3.00
62547;PMS7003;48602;45.192;5.722;2022-09-20T12:53:07;3.00;2.00;1.60
62547;PMS7003;48602;45.192;5.722;2022-09-20T12:55:42;3.00;3.00;2.80
62547;PMS7003;48602;45.192;5.722;2022-09-20T13:11:53;2.80;2.60;2.40
62547;PMS7003;48602;45.192;5.722;2022-09-20T13:14:21;3.40;2.20;2.00
62547;PMS7003;48602;45.192;5.722;2022-09-20T13:17:11;4.20;3.00;3.00
62547;PMS7003;48602;45.192;5.722;2022-09-20T13:19:48;3.00;3.00;3.00
62547;PMS7003;48602;45.192;5.722;2022-09-20T13:22:18;2.40;2.40;2.40
62547;PMS7003;48602;45.192;5.722;2022-09-20T13:24:50;3.00;3.00;2.00
62547;PMS7003;48602;45.192;5.722;2022-09-20T13:27:24;3.20;2.20;2.20
62547;PMS7003;48602;45.192;5.722;2022-09-20T13:30:07;3.40;3.40;2.80
62547;PMS7003;48602;45.192;5.722;2022-09-20T13:32:41;3.00;3.00;3.00
62547;PMS7003;48602;45.192;5.722;2022-09-20T13:37:49;4.40;2.00;2.00
62547;PMS7003;48602;45.192;5.722;2022-09-20T13:40:22;5.25;3.00;3.00
62547;PMS7003;48602;45.192;5.722;2022-09-20T13:42:57;2.00;1.00;1.00
62547;PMS7003;48602;45.192;5.722;2022-09-20T13:45:25;4.40;2.00;2.00
62547;PMS7003;48602;45.192;5.722;2022-09-20T13:47:53;4.00;4.00;3.00
62547;PMS7003;48602;45.192;5.722;2022-09-20T13:50:26;2.75;2.75;2.25
62547;PMS7003;48602;45.192;5.722;2022-09-20T13:52:58;2.80;2.20;2.00
62547;PMS7003;48602;45.192;5.722;2022-09-20T13:55:27;3.60;3.60;3.60
62547;PMS7003;48602;45.192;5.722;2022-09-20T13:58:03;4.00;3.40;3.00
62547;PMS7003;48602;45.192;5.722;2022-09-20T14:00:32;2.80;2.80;2.00
62547;PMS7003;48602;45.192;5.722;2022-09-20T14:02:59;5.00;3.80;3.60
62547;PMS7003;48602;45.192;5.722;2022-09-20T14:05:26;3.25;3.25;3.00
62547;PMS7003;48602;45.192;5.722;2022-09-20T14:07:54;3.00;3.00;3.00
62547;PMS7003;48602;45.192;5.722;2022-09-20T14:10:39;5.00;3.00;3.00
62547;PMS7003;48602;45.192;5.722;2022-09-20T14:13:07;3.80;3.00;2.80
62547;PMS7003;48602;45.192;5.722;2022-09-20T14:15:43;1.60;1.60;1.60
62547;PMS7003;48602;45.192;5.722;2022-09-20T14:18:14;4.00;2.60;2.40
62547;PMS7003;48602;45.192;5.722;2022-09-20T14:20:42;2.00;2.00;1.80
62547;PMS7003;48602;45.192;5.722;2022-09-20T14:23:21;3.20;3.20;3.00
62547;PMS7003;48602;45.192;5.722;2022-09-20T14:28:39;3.00;2.60;2.60
62547;PMS7003;48602;45.192;5.722;2022-09-20T14:31:07;3.00;1.00;1.00
62547;PMS7003;48602;45.192;5.722;2022-09-20T14:33:39;4.20;4.20;3.40
62547;PMS7003;48602;45.192;5.722;2022-09-20T14:36:14;2.80;2.80;2.80
62547;PMS7003;48602;45.192;5.722;2022-09-20T14:38:52;3.00;3.00;2.80
62547;PMS7003;48602;45.192;5.722;2022-09-20T14:41:26;3.00;2.40;2.40
62547;PMS7003;48602;45.192;5.722;2022-09-20T14:43:58;2.40;2.40;2.00
62547;PMS7003;48602;45.192;5.722;2022-09-20T14:46:31;3.40;2.00;2.00
62547;PMS7003;48602;45.192;5.722;2022-09-20T14:51:45;3.00;2.60;2.40
62547;PMS7003;48602;45.192;5.722;2022-09-20T14:56:37;6.25;4.00;3.00
62547;PMS7003;48602;45.192;5.722;2022-09-20T14:59:06;5.60;4.40;4.00
62547;PMS7003;48602;45.192;5.722;2022-09-20T15:01:43;2.00;2.00;1.80
62547;PMS7003;48602;45.192;5.722;2022-09-20T15:04:20;3.60;2.80;2.00
62547;PMS7003;48602;45.192;5.722;2022-09-20T15:06:47;3.20;3.20;3.00
62547;PMS7003;48602;45.192;5.722;2022-09-20T15:09:14;1.60;1.60;1.20
62547;PMS7003;48602;45.192;5.722;2022-09-20T15:11:39;3.00;3.00;3.00
62547;PMS7003;48602;45.192;5.722;2022-09-20T15:14:05;1.75;1.00;1.00
62547;PMS7003;48602;45.192;5.722;2022-09-20T15:16:32;2.00;2.00;2.00
62547;PMS7003;48602;45.192;5.722;2022-09-20T15:18:57;3.00;2.00;1.25
62547;PMS7003;48602;45.192;5.722;2022-09-20T15:21:23;3.50;3.00;2.00
62547;PMS7003;48602;45.192;5.722;2022-09-20T15:23:49;4.75;3.75;3.00
62547;PMS7003;48602;45.192;5.722;2022-09-20T15:26:16;3.60;2.00;2.00
62547;PMS7003;48602;45.192;5.722;2022-09-20T15:28:44;2.60;2.60;2.60
62547;PMS7003;48602;45.192;5.722;2022-09-20T15:31:09;3.50;2.00;2.00
62547;PMS7003;48602;45.192;5.722;2022-09-20T15:33:35;2.75;2.75;2.75
62547;PMS7003;48602;45.192;5.722;2022-09-20T15:36:00;3.00;3.00;2.00
62547;PMS7003;48602;45.192;5.722;2022-09-20T15:38:27;3.00;3.00;2.80
62547;PMS7003;48602;45.192;5.722;2022-09-20T15:40:52;4.00;3.00;3.00
62547;PMS7003;48602;45.192;5.722;2022-09-20T15:43:19;5.00;3.25;3.25
62547;PMS7003;48602;45.192;5.722;2022-09-20T15:45:51;3.00;3.00;3.00
62547;PMS7003;48602;45.192;5.722;2022-09-20T15:48:23;3.60;3.00;2.80
62547;PMS7003;48602;45.192;5.722;2022-09-20T15:51:11;2.40;2.20;2.00
62547;PMS7003;48602;45.192;5.722;2022-09-20T15:53:40;2.00;2.00;2.00
62547;PMS7003;48602;45.192;5.722;2022-09-20T15:56:16;2.80;2.80;2.40
62547;PMS7003;48602;45.192;5.722;2022-09-20T15:58:46;2.00;2.00;2.00
62547;PMS7003;48602;45.192;5.722;2022-09-20T16:01:13;5.00;3.80;3.20
62547;PMS7003;48602;45.192;5.722;2022-09-20T16:03:42;3.00;2.80;2.00
62547;PMS7003;48602;45.192;5.722;2022-09-20T16:06:08;3.60;3.00;2.60
62547;PMS7003;48602;45.192;5.722;2022-09-20T16:08:35;7.80;4.00;3.80
62547;PMS7003;48602;45.192;5.722;2022-09-20T16:11:03;1.00;1.00;1.00
62547;PMS7003;48602;45.192;5.722;2022-09-20T16:13:30;3.40;3.40;3.20
62547;PMS7003;48602;45.192;5.722;2022-09-20T16:15:59;2.00;2.00;2.00
62547;PMS7003;48602;45.192;5.722;2022-09-20T16:18:26;2.80;2.20;2.20
62547;PMS7003;48602;45.192;5.722;2022-09-20T16:21:11;4.00;3.00;2.40
62547;PMS7003;48602;45.192;5.722;2022-09-20T16:23:39;3.60;3.60;2.80
62547;PMS7003;48602;45.192;5.722;2022-09-20T16:26:06;3.80;3.80;3.60
62547;PMS7003;48602;45.192;5.722;2022-09-20T16:28:38;4.00;3.00;2.40
62547;PMS7003;48602;45.192;5.722;2022-09-20T16:31:05;1.60;1.60;1.20
62547;PMS7003;48602;45.192;5.722;2022-09-20T16:33:31;1.60;1.60;1.60
62547;PMS7003;48602;45.192;5.722;2022-09-20T16:35:57;3.00;3.00;3.00
62547;PMS7003;48602;45.192;5.722;2022-09-20T16:38:23;3.00;3.00;3.00
62547;PMS7003;48602;45.192;5.722;2022-09-20T16:40:48;3.00;2.25;2.25
62547;PMS7003;48602;45.192;5.722;2022-09-20T16:43:19;4.00;3.00;3.00
62547;PMS7003;48602;45.192;5.722;2022-09-20T16:45:56;4.00;2.80;2.60
62547;PMS7003;48602;45.192;5.722;2022-09-20T16:48:24;2.40;2.00;1.00
62547;PMS7003;48602;45.192;5.722;2022-09-20T16:50:54;2.80;2.80;2.40
62547;PMS7003;48602;45.192;5.722;2022-09-20T16:53:20;4.80;3.00;2.20
62547;PMS7003;48602;45.192;5.722;2022-09-20T16:55:45;3.75;2.75;2.75
62547;PMS7003;48602;45.192;5.722;2022-09-20T16:58:11;2.50;2.50;2.25
62547;PMS7003;48602;45.192;5.722;2022-09-20T17:00:36;3.25;3.00;2.50
62547;PMS7003;48602;45.192;5.722;2022-09-20T17:03:02;2.25;2.25;2.00
62547;PMS7003;48602;45.192;5.722;2022-09-20T17:05:27;3.25;2.75;2.75
62547;PMS7003;48602;45.192;5.722;2022-09-20T17:07:53;3.75;3.00;3.00
62547;PMS7003;48602;45.192;5.722;2022-09-20T17:10:19;3.00;3.00;3.00
62547;PMS7003;48602;45.192;5.722;2022-09-20T17:12:48;2.80;2.80;2.20
62547;PMS7003;48602;45.192;5.722;2022-09-20T17:15:16;2.80;2.20;1.20
62547;PMS7003;48602;45.192;5.722;2022-09-20T17:17:42;3.00;2.25;2.00
62547;PMS7003;48602;45.192;5.722;2022-09-20T17:20:07;3.00;3.00;2.50
62547;PMS7003;48602;45.192;5.722;2022-09-20T17:22:33;4.50;4.00;3.00
62547;PMS7003;48602;45.192;5.722;2022-09-20T17:24:58;4.00;2.75;2.25
62547;PMS7003;48602;45.192;5.722;2022-09-20T17:27:24;4.75;4.00;3.00
62547;PMS7003;48602;45.192;5.722;2022-09-20T17:29:49;7.00;4.75;4.00
62547;PMS7003;48602;45.192;5.722;2022-09-20T17:32:14;3.00;3.00;3.00
62547;PMS7003;48602;45.192;5.722;2022-09-20T17:34:40;3.00;2.25;2.00
62547;PMS7003;48602;45.192;5.722;2022-09-20T17:37:05;3.00;3.00;2.00
62547;PMS7003;48602;45.192;5.722;2022-09-20T17:39:31;4.00;2.00;1.50
62547;PMS7003;48602;45.192;5.722;2022-09-20T17:41:56;2.75;1.75;1.25
62547;PMS7003;48602;45.192;5.722;2022-09-20T17:44:22;3.75;2.00;2.00
62547;PMS7003;48602;45.192;5.722;2022-09-20T17:46:48;3.00;3.00;3.00
62547;PMS7003;48602;45.192;5.722;2022-09-20T17:49:18;5.00;5.00;3.50
62547;PMS7003;48602;45.192;5.722;2022-09-20T17:51:49;4.00;3.00;2.00
62547;PMS7003;48602;45.192;5.722;2022-09-20T17:54:16;3.00;3.00;3.00
62547;PMS7003;48602;45.192;5.722;2022-09-20T17:56:43;1.00;1.00;1.00
62547;PMS7003;48602;45.192;5.722;2022-09-20T17:59:11;3.00;2.00;2.00
62547;PMS7003;48602;45.192;5.722;2022-09-20T18:01:40;3.40;3.20;2.40
62547;PMS7003;48602;45.192;5.722;2022-09-20T18:04:07;3.00;2.00;1.80
62547;PMS7003;48602;45.192;5.722;2022-09-20T18:06:34;3.00;2.40;2.00
62547;PMS7003;48602;45.192;5.722;2022-09-20T18:09:06;1.00;1.00;1.00
62547;PMS7003;48602;45.192;5.722;2022-09-20T18:11:34;2.00;2.00;2.00
62547;PMS7003;48602;45.192;5.722;2022-09-20T18:14:05;1.60;1.00;1.00
62547;PMS7003;48602;45.192;5.722;2022-09-20T18:16:31;1.60;1.60;1.60
62547;PMS7003;48602;45.192;5.722;2022-09-20T18:18:58;3.00;2.00;2.00
62547;PMS7003;48602;45.192;5.722;2022-09-20T18:21:24;0.00;0.00;0.00
62547;PMS7003;48602;45.192;5.722;2022-09-20T18:23:52;3.00;3.00;2.20
62547;PMS7003;48602;45.192;5.722;2022-09-20T18:26:21;3.00;2.00;2.00
62547;PMS7003;48602;45.192;5.722;2022-09-20T18:29:01;1.00;1.00;1.00
62547;PMS7003;48602;45.192;5.722;2022-09-20T18:31:30;3.40;1.60;1.40
62547;PMS7003;48602;45.192;5.722;2022-09-20T18:34:10;1.40;1.00;0.80
62547;PMS7003;48602;45.192;5.722;2022-09-20T18:36:41;2.00;2.00;2.00
62547;PMS7003;48602;45.192;5.722;2022-09-20T18:39:09;2.25;2.00;2.00
62547;PMS7003;48602;45.192;5.722;2022-09-20T18:41:35;1.00;1.00;1.00
62547;PMS7003;48602;45.192;5.722;2022-09-20T18:44:02;2.00;2.00;2.00
62547;PMS7003;48602;45.192;5.722;2022-09-20T18:46:29;3.40;2.00;2.00
62547;PMS7003;48602;45.192;5.722;2022-09-20T18:48:56;0.25;0.25;0.00
62547;PMS7003;48602;45.192;5.722;2022-09-20T18:51:25;3.60;2.00;2.00
62547;PMS7003;48602;45.192;5.722;2022-09-20T18:53:54;1.00;1.00;1.00
62547;PMS7003;48602;45.192;5.722;2022-09-20T18:58:51;2.60;1.00;1.00
62547;PMS7003;48602;45.192;5.722;2022-09-20T19:09:53;2.60;1.60;1.60
62547;PMS7003;48602;45.192;5.722;2022-09-20T19:14:59;4.00;2.00;2.00
62547;PMS7003;48602;45.192;5.722;2022-09-20T19:20:33;3.00;1.00;1.00
62547;PMS7003;48602;45.192;5.722;2022-09-20T19:25:51;1.80;1.80;1.00
62547;PMS7003;48602;45.192;5.722;2022-09-20T19:28:42;3.60;1.80;1.80
62547;PMS7003;48602;45.192;5.722;2022-09-20T19:31:11;0.50;0.00;0.00
62547;PMS7003;48602;45.192;5.722;2022-09-20T19:33:45;2.20;1.00;1.00
62547;PMS7003;48602;45.192;5.722;2022-09-20T19:36:12;2.00;1.20;1.20
62547;PMS7003;48602;45.192;5.722;2022-09-20T19:38:45;2.00;2.00;2.00
62547;PMS7003;48602;45.192;5.722;2022-09-20T19:44:12;1.20;1.00;1.00
62547;PMS7003;48602;45.192;5.722;2022-09-20T19:52:13;1.50;1.50;1.25
62547;PMS7003;48602;45.192;5.722;2022-09-20T19:54:39;1.00;1.00;1.00
62547;PMS7003;48602;45.192;5.722;2022-09-20T19:57:05;5.25;2.00;2.00
62547;PMS7003;48602;45.192;5.722;2022-09-20T19:59:36;1.00;1.00;1.00
62547;PMS7003;48602;45.192;5.722;2022-09-20T20:02:02;1.75;1.00;1.00
62547;PMS7003;48602;45.192;5.722;2022-09-20T20:04:28;2.00;1.00;1.00
62547;PMS7003;48602;45.192;5.722;2022-09-20T20:07:14;1.50;1.00;1.00
62547;PMS7003;48602;45.192;5.722;2022-09-20T20:12:23;2.00;2.00;2.00
62547;PMS7003;48602;45.192;5.722;2022-09-20T20:20:58;2.00;2.00;2.00
62547;PMS7003;48602;45.192;5.722;2022-09-20T20:28:29;1.50;1.50;1.00
62547;PMS7003;48602;45.192;5.722;2022-09-20T20:30:55;1.75;1.75;1.50
62547;PMS7003;48602;45.192;5.722;2022-09-20T20:33:26;1.00;1.00;1.00
62547;PMS7003;48602;45.192;5.722;2022-09-20T20:35:52;2.50;2.50;2.50
62547;PMS7003;48602;45.192;5.722;2022-09-20T20:38:19;1.00;1.00;1.00
62547;PMS7003;48602;45.192;5.722;2022-09-20T20:40:57;3.50;2.50;2.00